createdAt,value
2022-08-09T00:00:11.368Z,50.39
2022-08-09T00:03:00.903Z,49.44
2022-08-09T00:06:17.291Z,48.34
2022-08-09T00:08:32.059Z,49.59
2022-08-09T00:11:05.987Z,47.25
2022-08-09T00:13:50.973Z,45.36
2022-08-09T00:16:25.845Z,44.00
2022-08-09T00:19:10.275Z,46.25
2022-08-09T00:21:56.140Z,46.33
2022-08-09T00:24:27.395Z,46.22
2022-08-09T00:26:57.393Z,47.46
2022-08-09T00:29:39.652Z,48.10
2022-08-09T00:32:26.548Z,49.88
2022-08-09T00:34:56.648Z,50.46
2022-08-09T00:37:30.229Z,51.00
2022-08-09T00:40:13.802Z,51.11
2022-08-09T00:44:19.801Z,52.66
2022-08-09T00:45:35.271Z,52.12
2022-08-09T00:48:05.581Z,54.94
2022-08-09T00:50:37.651Z,53.78
2022-08-09T00:53:10.601Z,53.68
2022-08-09T00:56:03.612Z,56.46
2022-08-09T00:58:31.519Z,59.91
2022-08-09T01:01:00.483Z,61.88
2022-08-09T01:03:45.487Z,63.34
2022-08-09T01:06:21.554Z,64.28
2022-08-09T01:08:59.827Z,65.28
2022-08-09T01:11:53.113Z,63.13
2022-08-09T01:14:31.510Z,60.46
2022-08-09T01:17:05.543Z,60.07
2022-08-09T01:20:01.795Z,61.10
2022-08-09T01:22:52.050Z,60.67
2022-08-09T01:25:48.777Z,63.51
2022-08-09T01:28:23.619Z,65.40
2022-08-09T01:30:59.889Z,67.29
2022-08-09T01:33:31.991Z,69.44
2022-08-09T01:36:05.509Z,70.53
2022-08-09T01:38:40.073Z,71.89
2022-08-09T01:41:14.361Z,72.17
2022-08-09T01:43:50.801Z,73.90
2022-08-09T01:46:24.679Z,73.87
2022-08-09T01:48:59.644Z,75.51
2022-08-09T01:51:32.623Z,76.44
2022-08-09T01:54:04.266Z,78.37
2022-08-09T01:56:34.836Z,78.28
2022-08-09T01:59:11.059Z,78.00
2022-08-09T02:01:59.791Z,78.07
2022-08-09T02:04:32.857Z,77.88
2022-08-09T02:07:18.074Z,77.23
2022-08-09T02:10:04.158Z,75.69
2022-08-09T02:12:35.630Z,75.43
2022-08-09T02:15:15.453Z,72.61
2022-08-09T02:18:00.970Z,71.95
2022-08-09T02:20:42.537Z,70.08
2022-08-09T02:23:16.985Z,69.22
2022-08-09T02:25:52.660Z,67.87
2022-08-09T02:28:28.642Z,68.42
2022-08-09T02:31:05.916Z,69.06
2022-08-09T02:34:06.280Z,70.87
2022-08-09T02:36:33.065Z,70.85
2022-08-09T02:39:05.714Z,69.35
2022-08-09T02:41:42.722Z,68.27
2022-08-09T02:44:25.531Z,67.24
2022-08-09T02:47:04.407Z,66.20
2022-08-09T02:49:39.030Z,65.42
2022-08-09T02:52:14.373Z,65.47
2022-08-09T02:54:53.839Z,64.70
2022-08-09T02:57:25.421Z,63.78
2022-08-09T03:00:21.357Z,64.99
2022-08-09T03:02:59.843Z,64.29
2022-08-09T03:05:34.161Z,64.06
2022-08-09T03:08:05.746Z,64.63
2022-08-09T03:10:37.368Z,65.31
2022-08-09T03:13:08.589Z,67.00
2022-08-09T03:16:05.711Z,65.66
2022-08-09T03:18:32.272Z,65.13
2022-08-09T03:21:03.558Z,65.34
2022-08-09T03:23:32.632Z,65.60
2022-08-09T03:26:04.735Z,65.21
2022-08-09T03:28:35.860Z,65.06
2022-08-09T03:31:10.329Z,66.20
2022-08-09T03:33:54.866Z,64.23
2022-08-09T03:36:27.443Z,63.54
2022-08-09T03:38:58.033Z,63.23
2022-08-09T03:41:29.801Z,62.75
2022-08-09T03:44:15.574Z,62.55
2022-08-09T03:46:44.986Z,61.68
2022-08-09T03:49:19.129Z,61.69
2022-08-09T03:51:56.577Z,60.67
2022-08-09T03:54:31.816Z,60.37
2022-08-09T03:57:04.588Z,59.86
2022-08-09T03:59:54.676Z,59.04
2022-08-09T04:02:27.553Z,58.30
2022-08-09T04:05:00.875Z,58.29
2022-08-09T04:07:47.802Z,58.37
2022-08-09T04:10:28.715Z,59.16
2022-08-09T04:13:01.359Z,59.03
2022-08-09T04:16:17.087Z,59.80
2022-08-09T04:18:21.928Z,63.60
2022-08-09T04:20:52.259Z,61.51
2022-08-09T04:23:24.494Z,61.08
2022-08-09T04:25:54.618Z,60.02
2022-08-09T04:28:33.058Z,60.88
2022-08-09T04:31:07.896Z,59.81
2022-08-09T04:33:52.308Z,61.49
2022-08-09T04:36:28.383Z,60.98
2022-08-09T04:38:59.185Z,60.18
2022-08-09T04:41:33.086Z,61.59
2022-08-09T04:44:06.937Z,61.02
2022-08-09T04:46:58.419Z,61.66
2022-08-09T04:49:55.033Z,60.89
2022-08-09T04:52:27.107Z,60.29
2022-08-09T04:54:57.755Z,59.53
2022-08-09T04:57:58.541Z,59.70
2022-08-09T05:00:17.392Z,61.36
2022-08-09T05:02:51.919Z,59.14
2022-08-09T05:05:32.011Z,61.29
2022-08-09T05:08:14.751Z,59.80
2022-08-09T05:10:44.582Z,61.82
2022-08-09T05:13:14.327Z,61.05
2022-08-09T05:15:52.175Z,59.92
2022-08-09T05:18:42.520Z,58.60
2022-08-09T05:21:24.338Z,59.46
2022-08-09T05:24:01.911Z,59.98
2022-08-09T05:26:45.822Z,60.05
2022-08-09T05:29:21.221Z,58.47
2022-08-09T05:31:56.961Z,58.87
2022-08-09T05:34:30.631Z,61.18
2022-08-09T05:37:06.273Z,60.19
2022-08-09T05:39:43.551Z,62.96
2022-08-09T05:42:17.812Z,62.27
2022-08-09T05:44:52.090Z,61.55
2022-08-09T05:47:22.619Z,62.49
2022-08-09T05:50:30.348Z,60.92
2022-08-09T05:52:42.060Z,61.15
2022-08-09T05:55:20.525Z,61.34
2022-08-09T05:57:57.020Z,60.47
2022-08-09T06:00:29.579Z,61.10
2022-08-09T06:02:59.609Z,59.62
2022-08-09T06:05:50.512Z,59.26
2022-08-09T06:08:19.143Z,58.71
2022-08-09T06:10:55.328Z,61.22
2022-08-09T06:13:24.855Z,59.16
2022-08-09T06:15:53.889Z,61.51
2022-08-09T06:18:23.821Z,63.30
2022-08-09T06:20:54.601Z,61.26
2022-08-09T06:23:55.260Z,59.60
2022-08-09T06:26:20.570Z,60.22
2022-08-09T06:28:59.485Z,60.84
2022-08-09T06:31:31.418Z,61.33
2022-08-09T06:34:09.391Z,62.05
2022-08-09T06:36:43.965Z,60.72
2022-08-09T06:39:13.508Z,62.04
2022-08-09T06:42:08.224Z,60.54
2022-08-09T06:44:33.600Z,60.46
2022-08-09T06:47:04.124Z,61.76
2022-08-09T06:50:12.083Z,61.27
2022-08-09T06:52:23.691Z,60.57
2022-08-09T06:54:54.097Z,59.26
2022-08-09T06:57:42.456Z,57.15
2022-08-09T07:00:53.979Z,56.90
2022-08-09T07:03:05.938Z,55.21
2022-08-09T07:05:53.615Z,56.28
2022-08-09T07:08:24.700Z,55.80
2022-08-09T07:10:53.710Z,56.36
2022-08-09T07:13:29.506Z,57.39
2022-08-09T07:16:44.010Z,56.88
2022-08-09T07:18:50.043Z,56.10
2022-08-09T07:21:19.961Z,55.62
2022-08-09T07:23:58.171Z,56.17
2022-08-09T07:26:27.497Z,55.42
2022-08-09T07:29:09.022Z,55.65
2022-08-09T07:31:45.566Z,54.34
2022-08-09T07:34:20.561Z,53.38
2022-08-09T07:36:50.713Z,52.57
2022-08-09T07:39:40.278Z,51.80
2022-08-09T07:42:11.423Z,51.10
2022-08-09T07:44:51.031Z,50.10
2022-08-09T07:47:21.744Z,51.89
2022-08-09T07:50:08.020Z,50.95
2022-08-09T07:52:38.404Z,50.33
2022-08-09T07:55:08.711Z,49.45
2022-08-09T07:57:47.309Z,52.70
2022-08-09T08:00:20.530Z,54.93
2022-08-09T08:03:08.253Z,55.24
2022-08-09T08:05:54.476Z,52.54
2022-08-09T08:09:00.718Z,52.77
2022-08-09T08:12:11.989Z,51.17
2022-08-09T08:14:06.458Z,49.27
2022-08-09T08:16:39.629Z,48.24
2022-08-09T08:19:19.700Z,49.12
2022-08-09T08:21:52.794Z,48.68
2022-08-09T08:24:21.926Z,48.79
2022-08-09T08:26:55.591Z,47.70
2022-08-09T08:29:27.858Z,52.20
2022-08-09T08:32:03.100Z,54.55
2022-08-09T08:34:34.888Z,54.44
2022-08-09T08:37:06.326Z,53.52
2022-08-09T08:39:45.001Z,51.44
2022-08-09T08:42:13.853Z,51.03
2022-08-09T08:44:46.320Z,49.69
2022-08-09T08:47:17.283Z,50.03
2022-08-09T08:49:49.308Z,49.74
2022-08-09T08:52:58.165Z,47.83
2022-08-09T08:55:10.100Z,49.07
2022-08-09T08:57:38.910Z,50.60
2022-08-09T09:00:16.939Z,48.23
2022-08-09T09:03:08.567Z,52.54
2022-08-09T09:05:58.645Z,51.75
2022-08-09T09:08:40.902Z,48.98
2022-08-09T09:11:13.783Z,48.08
2022-08-09T09:13:57.556Z,49.81
2022-08-09T09:16:30.476Z,48.43
2022-08-09T09:22:04.194Z,49.60
2022-08-09T09:24:37.879Z,50.72
2022-08-09T09:27:08.623Z,48.73
2022-08-09T09:30:10.725Z,46.94
2022-08-09T09:32:34.754Z,49.58
2022-08-09T09:35:10.641Z,49.89
2022-08-09T09:37:41.850Z,49.40
2022-08-09T09:40:13.053Z,47.41
2022-08-09T09:42:42.983Z,45.89
2022-08-09T09:45:26.466Z,44.70
2022-08-09T09:47:59.047Z,45.43
2022-08-09T09:50:54.584Z,43.12
2022-08-09T09:53:44.199Z,43.00
2022-08-09T09:56:31.091Z,47.29
2022-08-09T09:59:01.277Z,44.83
2022-08-09T10:01:38.213Z,43.86
2022-08-09T10:04:30.646Z,45.67
2022-08-09T10:07:03.582Z,49.65
2022-08-09T10:09:54.612Z,49.01
2022-08-09T10:12:31.463Z,45.92
2022-08-09T10:15:17.753Z,45.28
2022-08-09T10:18:12.889Z,46.71
2022-08-09T10:20:45.274Z,47.20
2022-08-09T10:23:19.934Z,46.10
2022-08-09T10:26:06.837Z,46.39
2022-08-09T10:28:41.278Z,45.97
2022-08-09T10:34:08.423Z,43.64
2022-08-09T10:36:42.228Z,44.19
2022-08-09T10:39:16.200Z,44.41
2022-08-09T10:41:47.787Z,43.66
2022-08-09T10:44:21.770Z,42.57
2022-08-09T10:47:20.449Z,42.54
2022-08-09T10:50:09.878Z,41.66
2022-08-09T10:53:10.647Z,41.94
2022-08-09T10:55:58.323Z,42.33
2022-08-09T10:58:33.758Z,43.18
2022-08-09T11:03:06.385Z,42.51
2022-08-09T11:04:27.984Z,41.49
2022-08-09T11:07:57.316Z,39.51
2022-08-09T11:11:00.816Z,37.63
2022-08-09T11:13:49.958Z,37.58
2022-08-09T11:16:35.496Z,36.22
2022-08-09T11:19:09.320Z,36.34
2022-08-09T11:22:21.523Z,34.86
2022-08-09T11:25:08.943Z,34.05
2022-08-09T11:28:09.189Z,33.25
2022-08-09T11:30:36.721Z,32.93
2022-08-09T11:33:12.950Z,32.21
2022-08-09T11:35:49.431Z,31.94
2022-08-09T11:38:22.121Z,34.16
2022-08-09T11:40:52.982Z,34.08
2022-08-09T11:43:52.050Z,34.70
2022-08-09T11:46:33.146Z,33.88
2022-08-09T11:49:04.949Z,33.16
2022-08-09T11:53:02.972Z,32.15
2022-08-09T11:55:39.942Z,31.54
2022-08-09T11:58:50.059Z,31.26
2022-08-09T12:02:16.317Z,34.11
2022-08-09T12:04:20.927Z,32.83
2022-08-09T12:06:57.839Z,35.03
2022-08-09T12:09:33.874Z,35.86
2022-08-09T12:12:12.938Z,36.71
2022-08-09T12:15:07.714Z,36.02
2022-08-09T12:17:43.611Z,35.68
2022-08-09T12:20:16.685Z,34.17
2022-08-09T12:22:55.817Z,34.27
2022-08-09T12:25:35.700Z,34.50
2022-08-09T12:29:10.495Z,33.38
2022-08-09T12:31:11.171Z,31.66
2022-08-09T12:34:00.738Z,30.77
2022-08-09T12:36:33.646Z,30.75
2022-08-09T12:39:14.974Z,29.88
2022-08-09T12:41:43.640Z,29.13
2022-08-09T12:44:13.348Z,30.26
2022-08-09T12:46:49.092Z,30.01
2022-08-09T12:49:21.370Z,29.25
2022-08-09T12:52:02.294Z,27.77
2022-08-09T12:55:03.079Z,29.63
2022-08-09T12:57:40.170Z,31.12
2022-08-09T13:00:16.592Z,32.15
2022-08-09T13:02:54.836Z,31.96
2022-08-09T13:05:25.531Z,31.30
2022-08-09T13:08:15.219Z,32.56
2022-08-09T13:10:52.428Z,33.16
2022-08-09T13:13:38.499Z,34.43
2022-08-09T13:16:21.842Z,34.50
2022-08-09T13:18:54.048Z,34.30
2022-08-09T13:22:37.419Z,34.72
2022-08-09T13:24:53.839Z,35.47
2022-08-09T13:27:06.005Z,35.33
2022-08-09T13:30:03.081Z,35.31
2022-08-09T13:32:29.235Z,37.26
2022-08-09T13:34:59.080Z,36.87
2022-08-09T13:37:52.364Z,37.24
2022-08-09T13:41:55.513Z,37.16
2022-08-09T13:43:09.987Z,36.84
2022-08-09T13:46:42.555Z,36.40
2022-08-09T13:48:29.929Z,37.56
2022-08-09T13:50:59.935Z,36.90
2022-08-09T13:53:41.508Z,36.16
2022-08-09T13:56:13.202Z,35.71
2022-08-09T13:58:42.276Z,34.45
2022-08-09T14:01:13.466Z,35.77
2022-08-09T14:04:04.860Z,36.13
2022-08-09T14:06:40.864Z,35.61
2022-08-09T14:09:15.436Z,35.03
2022-08-09T14:11:47.204Z,34.74
2022-08-09T14:14:23.924Z,35.46
2022-08-09T14:16:55.663Z,34.40
2022-08-09T14:19:24.978Z,34.38
2022-08-09T14:21:54.985Z,33.66
2022-08-09T14:24:32.343Z,34.14
2022-08-09T14:27:02.614Z,33.34
2022-08-09T14:30:35.158Z,32.64
2022-08-09T14:32:28.752Z,33.83
2022-08-09T14:34:59.461Z,33.80
2022-08-09T14:38:01.306Z,32.92
2022-08-09T14:40:18.072Z,32.52
2022-08-09T14:43:06.745Z,33.71
2022-08-09T14:46:54.206Z,33.03
2022-08-09T14:48:23.877Z,33.27
2022-08-09T14:50:55.366Z,34.08
2022-08-09T14:53:25.474Z,34.80
2022-08-09T14:55:54.338Z,35.63
2022-08-09T14:58:23.075Z,35.75
2022-08-09T15:00:52.438Z,36.50
2022-08-09T15:03:21.327Z,36.28
2022-08-09T15:05:53.852Z,35.98
2022-08-09T15:08:30.418Z,35.33
2022-08-09T15:11:00.392Z,36.24
2022-08-09T15:13:56.320Z,35.36
2022-08-09T15:16:19.618Z,34.81
2022-08-09T15:18:49.383Z,35.40
2022-08-09T15:22:00.928Z,35.20
2022-08-09T15:24:17.596Z,36.00
2022-08-09T15:26:47.660Z,37.07
2022-08-09T15:30:59.193Z,36.40
2022-08-09T15:32:29.492Z,36.19
2022-08-09T15:35:00.614Z,36.31
2022-08-09T15:37:56.181Z,36.45
2022-08-09T15:40:32.109Z,36.12
2022-08-09T15:43:01.801Z,36.29
2022-08-09T15:45:31.136Z,36.41
2022-08-09T15:48:29.402Z,37.54
2022-08-09T15:51:01.548Z,41.64
2022-08-09T15:54:04.360Z,43.79
2022-08-09T15:56:28.662Z,42.41
2022-08-09T15:58:59.904Z,42.67
2022-08-09T16:01:31.501Z,42.98
2022-08-09T16:04:03.919Z,44.69
2022-08-09T16:06:35.340Z,45.90
2022-08-09T16:09:05.276Z,45.52
2022-08-09T16:11:35.679Z,46.47
2022-08-09T16:14:07.995Z,45.29
2022-08-09T16:16:39.070Z,47.06
2022-08-09T16:19:13.610Z,46.10
2022-08-09T16:21:51.798Z,45.83
2022-08-09T16:24:32.959Z,45.32
2022-08-09T16:27:05.247Z,44.67
2022-08-09T16:29:36.795Z,46.03
2022-08-09T16:32:17.936Z,45.63
2022-08-09T16:34:58.070Z,46.39
2022-08-09T16:37:56.084Z,46.49
2022-08-09T16:40:20.623Z,46.44
2022-08-09T16:43:09.097Z,45.21
2022-08-09T16:45:44.035Z,44.74
2022-08-09T16:48:40.919Z,45.68
2022-08-09T16:51:08.394Z,46.87
2022-08-09T16:53:47.248Z,46.86
2022-08-09T16:56:26.311Z,45.72
2022-08-09T16:59:01.718Z,46.39
2022-08-09T17:01:35.614Z,45.87
2022-08-09T17:04:05.411Z,45.34
2022-08-09T17:07:03.893Z,45.18
2022-08-09T17:09:44.967Z,45.13
2022-08-09T17:12:12.989Z,44.50
2022-08-09T17:14:47.842Z,45.05
2022-08-09T17:17:27.371Z,44.55
2022-08-09T17:20:32.387Z,43.74
2022-08-09T17:22:50.005Z,44.61
2022-08-09T17:25:21.999Z,44.56
2022-08-09T17:27:54.674Z,45.67
2022-08-09T17:30:28.290Z,48.29
2022-08-09T17:33:04.677Z,47.14
2022-08-09T17:35:41.105Z,47.55
2022-08-09T17:38:32.293Z,47.32
2022-08-09T17:41:01.012Z,47.59
2022-08-09T17:43:34.889Z,47.08
2022-08-09T17:46:09.573Z,46.78
2022-08-09T17:48:46.483Z,47.07
2022-08-09T17:51:21.590Z,46.69
2022-08-09T17:53:54.677Z,47.16
2022-08-09T17:56:27.482Z,47.13
2022-08-09T17:59:02.948Z,47.22
2022-08-09T18:02:03.834Z,46.98
2022-08-09T18:04:23.600Z,45.87
2022-08-09T18:06:55.317Z,45.55
2022-08-09T18:09:35.840Z,47.17
2022-08-09T18:12:14.898Z,47.34
2022-08-09T18:14:49.889Z,47.64
2022-08-09T18:17:27.644Z,46.71
2022-08-09T18:20:59.099Z,46.88
2022-08-09T18:23:05.032Z,47.31
2022-08-09T18:25:50.783Z,46.38
2022-08-09T18:30:42.992Z,47.20
2022-08-09T18:31:12.613Z,46.76
2022-08-09T18:33:51.479Z,50.75
2022-08-09T18:36:25.653Z,49.95
2022-08-09T18:39:02.782Z,50.59
2022-08-09T18:41:34.687Z,50.48
2022-08-09T18:44:13.003Z,51.84
2022-08-09T18:46:49.451Z,51.37
2022-08-09T18:49:32.088Z,50.90
2022-08-09T18:52:10.073Z,50.96
2022-08-09T18:54:49.765Z,51.45
2022-08-09T18:57:22.347Z,52.50
2022-08-09T18:59:57.610Z,52.27
2022-08-09T19:02:31.667Z,51.48
2022-08-09T19:05:20.617Z,51.83
2022-08-09T19:08:04.813Z,51.06
2022-08-09T19:10:39.998Z,51.44
2022-08-09T19:13:22.585Z,51.37
2022-08-09T19:16:00.268Z,51.46
2022-08-09T19:18:34.043Z,52.58
2022-08-09T19:21:10.491Z,51.80
2022-08-09T19:24:32.424Z,52.48
2022-08-09T19:26:32.215Z,52.86
2022-08-09T19:29:03.136Z,51.73
2022-08-09T19:31:44.947Z,51.72
2022-08-09T19:34:22.280Z,51.03
2022-08-09T19:36:54.017Z,53.80
2022-08-09T19:39:43.129Z,52.33
2022-08-09T19:42:15.315Z,53.16
2022-08-09T19:44:50.767Z,54.36
2022-08-09T19:47:22.913Z,54.30
2022-08-09T19:50:06.716Z,54.80
2022-08-09T19:52:51.386Z,55.46
2022-08-09T19:55:30.795Z,53.62
2022-08-09T19:58:16.722Z,54.05
2022-08-09T20:00:47.274Z,54.14
2022-08-09T20:04:12.175Z,54.24
2022-08-09T20:06:22.332Z,54.73
2022-08-09T20:08:56.530Z,54.83
2022-08-09T20:11:26.712Z,55.92
2022-08-09T20:13:56.135Z,56.34
2022-08-09T20:16:37.314Z,56.59
2022-08-09T20:19:49.517Z,56.27
2022-08-09T20:22:02.169Z,56.07
2022-08-09T20:24:35.028Z,56.87
2022-08-09T20:27:08.373Z,56.95
2022-08-09T20:29:39.170Z,55.43
2022-08-09T20:32:30.922Z,56.80
2022-08-09T20:34:58.568Z,57.53
2022-08-09T20:38:18.894Z,57.12
2022-08-09T20:40:26.423Z,57.08
2022-08-09T20:43:12.106Z,56.46
2022-08-09T20:46:00.403Z,57.36
2022-08-09T20:48:37.661Z,56.82
2022-08-09T20:51:06.895Z,56.66
2022-08-09T20:53:38.754Z,56.41
2022-08-09T20:56:19.866Z,56.34
2022-08-09T20:58:54.608Z,59.36
2022-08-09T21:01:35.287Z,58.73
2022-08-09T21:05:54.482Z,59.84
2022-08-09T21:07:12.319Z,58.68
2022-08-09T21:09:55.487Z,59.13
2022-08-09T21:15:23.709Z,57.03
2022-08-09T21:18:29.741Z,58.90
2022-08-09T21:20:54.767Z,59.54
2022-08-09T21:23:26.540Z,58.18
2022-08-09T21:26:15.654Z,59.63
2022-08-09T21:28:55.869Z,58.77
2022-08-09T21:31:48.666Z,58.36
2022-08-09T21:34:18.103Z,58.19
2022-08-09T21:36:57.567Z,59.73
2022-08-09T21:39:27.967Z,61.80
2022-08-09T21:42:10.321Z,60.56
2022-08-09T21:44:42.791Z,61.22
2022-08-09T21:47:14.152Z,61.20
2022-08-09T21:49:48.138Z,60.25
2022-08-09T21:52:20.615Z,62.16
2022-08-09T21:54:59.342Z,60.08
2022-08-09T21:57:39.385Z,59.90
2022-08-09T22:00:32.113Z,59.53
2022-08-09T22:03:04.778Z,61.42
2022-08-09T22:05:37.189Z,62.67
2022-08-09T22:08:13.833Z,60.99
2022-08-09T22:11:05.272Z,61.39
2022-08-09T22:13:35.655Z,63.02
2022-08-09T22:16:09.052Z,62.30
2022-08-09T22:18:52.794Z,63.22
2022-08-09T22:21:27.411Z,62.45
2022-08-09T22:24:17.147Z,63.04
2022-08-09T22:26:51.683Z,63.22
2022-08-09T22:29:26.832Z,62.37
2022-08-09T22:32:02.365Z,60.81
2022-08-09T22:34:30.841Z,62.17
2022-08-09T22:37:00.614Z,61.73
2022-08-09T22:39:56.432Z,62.10
2022-08-09T22:42:21.929Z,61.63
2022-08-09T22:48:04.902Z,61.51
2022-08-09T22:48:10.227Z,61.47
2022-08-09T22:50:34.231Z,60.45
2022-08-09T22:53:04.266Z,58.84
2022-08-09T22:56:06.524Z,58.52
2022-08-09T22:58:32.199Z,57.71
2022-08-09T23:01:02.367Z,57.58
2022-08-09T23:04:05.520Z,57.14
2022-08-09T23:06:32.637Z,57.39
2022-08-09T23:09:05.742Z,58.09
2022-08-09T23:11:34.384Z,58.90
2022-08-09T23:14:03.655Z,60.21
2022-08-09T23:16:32.656Z,60.06
2022-08-09T23:19:02.471Z,61.47
2022-08-09T23:21:34.586Z,61.09
2022-08-09T23:24:07.275Z,61.64
2022-08-09T23:26:36.547Z,61.15
2022-08-09T23:29:05.619Z,61.33
2022-08-09T23:31:34.915Z,59.82
2022-08-09T23:34:04.975Z,59.36
2022-08-09T23:36:35.143Z,59.89
2022-08-09T23:39:06.272Z,59.43
2022-08-09T23:41:35.146Z,60.21
2022-08-09T23:44:04.746Z,58.68
2022-08-09T23:46:33.776Z,59.00
2022-08-09T23:49:04.645Z,58.97
2022-08-09T23:51:33.213Z,60.42
2022-08-09T23:54:02.608Z,59.11
2022-08-09T23:56:52.207Z,62.07
2022-08-09T23:59:21.609Z,61.35
